createdAt,value
2023-02-18T10:12:30.678Z,13.60
2023-02-18T10:15:02.126Z,13.70
2023-02-18T10:17:33.472Z,13.70
2023-02-18T10:20:03.741Z,13.70
2023-02-18T10:22:34.306Z,13.70
2023-02-18T10:25:05.959Z,13.70
2023-02-18T10:27:36.423Z,13.70
2023-02-18T10:30:25.493Z,13.70
2023-02-18T10:33:01.697Z,13.60
2023-02-18T10:35:35.926Z,13.70
2023-02-18T10:38:11.086Z,13.70
2023-02-18T10:40:51.631Z,13.80
2023-02-18T10:43:26.992Z,13.80
2023-02-18T10:46:03.456Z,13.80
2023-02-18T10:48:45.632Z,13.70
2023-02-18T10:51:17.893Z,13.80
2023-02-18T10:53:47.782Z,13.70
2023-02-18T10:56:35.788Z,13.70
2023-02-18T10:59:11.723Z,13.80
2023-02-18T11:01:42.116Z,13.80
2023-02-18T11:04:16.006Z,13.70
2023-02-18T11:06:46.750Z,13.70
2023-02-18T11:09:31.353Z,13.70
2023-02-18T11:12:09.048Z,13.70
2023-02-18T11:14:43.418Z,13.80
2023-02-18T11:17:23.069Z,13.80
2023-02-18T11:19:57.788Z,13.80
2023-02-18T11:22:29.163Z,13.80
2023-02-18T11:24:59.222Z,13.80
2023-02-18T11:27:32.620Z,13.90
2023-02-18T11:30:04.964Z,13.80
2023-02-18T11:32:38.060Z,13.80
2023-02-18T11:35:07.027Z,13.80
2023-02-18T11:37:37.092Z,13.80
2023-02-18T11:40:06.772Z,13.80
2023-02-18T11:42:35.065Z,13.80
2023-02-18T11:45:05.485Z,13.80
2023-02-18T11:47:37.128Z,13.90
2023-02-18T11:50:23.536Z,13.90
2023-02-18T11:52:53.936Z,13.80
2023-02-18T11:55:28.778Z,13.80
2023-02-18T11:58:01.331Z,13.90
2023-02-18T12:00:40.128Z,13.80
2023-02-18T12:03:18.542Z,13.80
2023-02-18T12:05:47.632Z,13.70
2023-02-18T12:08:20.444Z,13.70
2023-02-18T12:10:51.473Z,13.70
2023-02-18T12:13:33.158Z,13.70
2023-02-18T12:16:12.327Z,13.60
2023-02-18T12:19:02.680Z,13.70
2023-02-18T12:21:48.802Z,13.70
2023-02-18T12:24:32.441Z,13.70
2023-02-18T12:27:07.412Z,13.70
2023-02-18T12:29:57.542Z,13.70
2023-02-18T12:32:37.424Z,13.70
2023-02-18T12:35:29.608Z,13.80
2023-02-18T12:38:11.334Z,13.80
2023-02-18T12:41:00.055Z,13.80
2023-02-18T12:43:39.997Z,13.80
2023-02-18T12:46:24.778Z,13.80
2023-02-18T12:49:17.556Z,13.80
2023-02-18T12:52:00.380Z,13.80
2023-02-18T12:54:42.195Z,13.90
2023-02-18T12:57:32.804Z,13.80
2023-02-18T13:00:36.827Z,13.80
2023-02-18T13:03:41.038Z,13.90
2023-02-18T13:06:22.781Z,13.80
2023-02-18T13:09:05.414Z,13.80
2023-02-18T13:11:46.997Z,13.90
2023-02-18T13:14:20.041Z,13.90
2023-02-18T13:16:52.027Z,13.90
2023-02-18T13:19:25.784Z,13.90
2023-02-18T13:21:57.910Z,13.90
2023-02-18T13:24:34.711Z,13.90
2023-02-18T13:27:15.023Z,13.90
2023-02-18T13:29:49.395Z,13.90
2023-02-18T13:32:30.796Z,13.90
2023-02-18T13:35:08.745Z,13.90
2023-02-18T13:37:41.508Z,13.90
2023-02-18T13:40:22.279Z,13.90
2023-02-18T13:42:52.692Z,13.80
2023-02-18T13:45:32.326Z,13.80
2023-02-18T13:48:01.902Z,13.70
2023-02-18T13:50:46.116Z,13.70
2023-02-18T13:53:22.902Z,13.70
2023-02-18T13:56:13.591Z,13.70
2023-02-18T13:58:44.504Z,13.70
2023-02-18T14:01:36.057Z,13.80
2023-02-18T14:04:37.658Z,13.80
2023-02-18T14:07:29.893Z,13.80
2023-02-18T14:09:59.528Z,13.80
2023-02-18T14:12:40.468Z,13.80
2023-02-18T14:15:50.381Z,13.90
2023-02-18T14:18:58.915Z,13.90
2023-02-18T14:21:45.209Z,13.90
2023-02-18T14:24:14.656Z,14.00
2023-02-18T14:26:47.504Z,14.00
2023-02-18T14:29:32.110Z,14.00
2023-02-18T14:32:34.508Z,13.90
2023-02-18T14:35:32.674Z,13.90
2023-02-18T14:38:21.800Z,14.00
2023-02-18T14:41:43.657Z,14.00
2023-02-18T14:44:52.872Z,14.10
2023-02-18T14:47:50.562Z,14.10
2023-02-18T14:50:25.610Z,14.20
2023-02-18T14:53:08.225Z,14.30
2023-02-18T14:55:52.408Z,14.30
2023-02-18T14:58:33.160Z,14.30
2023-02-18T15:01:17.423Z,14.40
2023-02-18T15:03:45.576Z,14.40
